createdAt,value
2022-11-06T00:01:36.771Z,22.83
2022-11-06T00:04:04.282Z,24.20
2022-11-06T00:06:57.851Z,25.00
2022-11-06T00:09:25.263Z,17.00
2022-11-06T00:11:54.043Z,21.95
2022-11-06T00:14:21.495Z,30.30
2022-11-06T00:16:49.134Z,27.27
2022-11-06T00:19:17.139Z,25.80
2022-11-06T00:21:45.236Z,21.88
2022-11-06T00:24:14.750Z,21.60
2022-11-06T00:26:42.723Z,25.48
2022-11-06T00:29:14.132Z,21.27
2022-11-06T00:31:41.658Z,25.67
2022-11-06T00:34:09.096Z,21.15
2022-11-06T00:36:36.841Z,29.20
2022-11-06T00:39:04.678Z,23.40
2022-11-06T00:41:32.316Z,22.75
2022-11-06T00:44:01.792Z,26.70
2022-11-06T00:46:30.971Z,20.13
2022-11-06T00:48:58.765Z,21.95
2022-11-06T00:51:28.891Z,27.85
2022-11-06T00:53:57.537Z,22.33
2022-11-06T00:56:25.400Z,32.10
2022-11-06T00:58:53.285Z,25.20
2022-11-06T01:01:23.249Z,25.63
2022-11-06T01:03:55.950Z,25.20
2022-11-06T01:06:29.390Z,25.30
2022-11-06T01:08:57.020Z,29.35
2022-11-06T01:11:26.462Z,26.67
2022-11-06T01:13:57.525Z,23.00
2022-11-06T01:16:27.326Z,22.55
2022-11-06T01:18:57.948Z,29.67
2022-11-06T01:21:27.656Z,22.15
2022-11-06T01:23:57.660Z,26.67
2022-11-06T01:26:37.748Z,31.23
2022-11-06T01:29:09.829Z,24.00
2022-11-06T01:31:39.849Z,29.88
2022-11-06T01:34:19.519Z,34.97
2022-11-06T01:36:51.029Z,26.55
2022-11-06T01:39:26.400Z,24.52
2022-11-06T01:41:57.960Z,21.35
2022-11-06T01:45:18.271Z,27.23
2022-11-06T01:47:46.421Z,36.42
2022-11-06T01:50:17.362Z,27.92
2022-11-06T01:52:46.317Z,21.13
2022-11-06T01:55:17.905Z,29.30
2022-11-06T01:57:45.920Z,31.10
2022-11-06T02:00:14.427Z,30.48
2022-11-06T02:02:42.081Z,28.45
2022-11-06T02:05:10.345Z,33.22
2022-11-06T02:07:40.364Z,29.48
2022-11-06T02:10:08.718Z,34.92
2022-11-06T02:12:46.952Z,30.10
2022-11-06T02:15:19.296Z,29.10
2022-11-06T02:17:56.722Z,28.00
2022-11-06T02:20:30.984Z,36.20
2022-11-06T02:23:11.557Z,28.02
2022-11-06T02:25:47.741Z,29.20
2022-11-06T02:28:22.818Z,25.85
2022-11-06T02:30:50.790Z,25.52
2022-11-06T02:33:20.056Z,30.48
2022-11-06T02:35:50.564Z,27.60
2022-11-06T02:38:23.619Z,27.42
2022-11-06T02:40:53.975Z,21.23
2022-11-06T02:43:25.816Z,24.27
2022-11-06T02:45:56.636Z,29.23
2022-11-06T02:48:29.198Z,27.50
2022-11-06T02:50:58.502Z,20.50
2022-11-06T02:53:27.233Z,31.58
2022-11-06T02:55:56.930Z,33.78
2022-11-06T02:58:29.651Z,27.42
2022-11-06T03:01:01.621Z,32.85
2022-11-06T03:03:31.366Z,26.98
2022-11-06T03:06:03.123Z,24.17
2022-11-06T03:08:34.810Z,22.92
2022-11-06T03:11:06.507Z,25.38
2022-11-06T03:13:40.764Z,23.73
2022-11-06T03:16:15.009Z,24.60
2022-11-06T03:18:44.688Z,29.02
2022-11-06T03:21:19.796Z,26.50
2022-11-06T03:23:50.097Z,24.38
2022-11-06T03:26:20.489Z,29.20
2022-11-06T03:28:53.724Z,31.40
2022-11-06T03:31:35.295Z,24.20
2022-11-06T03:34:05.793Z,25.80
2022-11-06T03:36:35.537Z,27.20
2022-11-06T03:39:05.573Z,22.38
2022-11-06T03:41:36.690Z,26.48
2022-11-06T03:44:06.578Z,30.23
2022-11-06T03:46:38.114Z,23.15
2022-11-06T03:49:07.747Z,28.90
2022-11-06T03:51:39.633Z,25.02
2022-11-06T03:54:10.991Z,26.17
2022-11-06T03:56:41.501Z,25.83
2022-11-06T03:59:11.626Z,29.08
2022-11-06T04:01:44.237Z,24.70
2022-11-06T04:04:16.877Z,30.10
2022-11-06T04:06:48.097Z,24.10
2022-11-06T04:09:34.208Z,30.98
2022-11-06T04:12:20.634Z,24.50
2022-11-06T04:14:52.554Z,29.10
2022-11-06T04:17:21.040Z,32.15
2022-11-06T04:19:51.226Z,26.00
2022-11-06T04:22:29.785Z,29.05
2022-11-06T04:25:22.989Z,24.67
2022-11-06T04:28:04.397Z,28.55
2022-11-06T04:30:36.398Z,24.92
2022-11-06T04:33:07.480Z,25.70
2022-11-06T04:35:45.387Z,32.58
2022-11-06T04:38:17.081Z,31.85
2022-11-06T04:40:51.033Z,26.58
2022-11-06T04:43:24.320Z,25.17
2022-11-06T04:45:55.637Z,30.40
2022-11-06T04:48:23.876Z,25.70
2022-11-06T04:50:52.805Z,24.13
2022-11-06T04:53:20.949Z,25.83
2022-11-06T04:55:49.329Z,23.92
2022-11-06T04:58:16.827Z,34.22
2022-11-06T05:00:49.113Z,29.45
2022-11-06T05:03:18.637Z,26.77
2022-11-06T05:05:46.286Z,26.02
2022-11-06T05:08:15.870Z,24.85
2022-11-06T05:10:45.038Z,28.65
2022-11-06T05:13:12.706Z,32.63
2022-11-06T05:15:40.167Z,27.77
2022-11-06T05:18:08.263Z,29.40
2022-11-06T05:20:37.013Z,26.95
2022-11-06T05:23:04.008Z,28.65
2022-11-06T05:25:32.674Z,32.13
2022-11-06T05:28:00.620Z,31.80
2022-11-06T05:30:28.350Z,33.17
2022-11-06T05:32:55.767Z,25.05
2022-11-06T05:35:23.177Z,27.80
2022-11-06T05:37:51.910Z,32.85
2022-11-06T05:40:19.317Z,28.50
2022-11-06T05:42:46.714Z,27.67
2022-11-06T05:45:14.188Z,29.02
2022-11-06T05:47:42.555Z,31.70
2022-11-06T05:50:10.944Z,30.45
2022-11-06T05:52:38.770Z,33.05
2022-11-06T05:55:14.421Z,31.77
2022-11-06T05:57:42.841Z,27.35
2022-11-06T06:00:11.562Z,33.05
2022-11-06T06:02:43.773Z,36.33
2022-11-06T06:05:11.494Z,27.23
2022-11-06T06:07:38.946Z,32.35
2022-11-06T06:10:08.687Z,30.50
2022-11-06T06:12:36.130Z,27.90
2022-11-06T06:15:03.610Z,29.25
2022-11-06T06:17:31.025Z,33.28
2022-11-06T06:20:01.489Z,28.80
2022-11-06T06:22:28.897Z,30.02
2022-11-06T06:24:56.404Z,28.00
2022-11-06T06:27:27.434Z,33.95
2022-11-06T06:29:55.058Z,39.13
2022-11-06T06:32:22.522Z,32.08
2022-11-06T06:34:49.967Z,30.40
2022-11-06T06:37:20.136Z,31.08
2022-11-06T06:39:47.799Z,37.15
2022-11-06T06:42:15.185Z,30.55
2022-11-06T06:44:43.909Z,30.20
2022-11-06T06:47:11.423Z,33.78
2022-11-06T06:49:38.821Z,30.90
2022-11-06T06:52:06.549Z,22.92
2022-11-06T06:54:33.950Z,26.02
2022-11-06T06:57:01.419Z,28.40
2022-11-06T06:59:29.629Z,26.90
2022-11-06T07:01:58.696Z,27.83
2022-11-06T07:04:26.162Z,28.10
2022-11-06T07:06:54.126Z,28.60
2022-11-06T07:09:21.967Z,28.13
2022-11-06T07:11:49.400Z,34.17
2022-11-06T07:14:16.800Z,31.27
2022-11-06T07:16:45.670Z,26.75
2022-11-06T07:19:17.475Z,31.17
2022-11-06T07:21:44.873Z,28.15
2022-11-06T07:24:12.400Z,27.02
2022-11-06T07:26:39.787Z,28.05
2022-11-06T07:29:07.179Z,25.80
2022-11-06T07:31:34.569Z,23.00
2022-11-06T07:34:01.973Z,21.95
2022-11-06T07:36:32.730Z,24.15
2022-11-06T07:39:00.116Z,25.13
2022-11-06T07:41:27.503Z,20.05
2022-11-06T07:43:54.903Z,19.90
2022-11-06T07:46:22.348Z,20.20
2022-11-06T07:48:49.923Z,26.80
2022-11-06T07:51:35.995Z,20.38
2022-11-06T07:54:15.404Z,21.60
2022-11-06T07:56:42.875Z,17.27
2022-11-06T07:59:10.317Z,21.98
2022-11-06T08:01:37.913Z,20.55
2022-11-06T08:04:05.527Z,21.27
2022-11-06T08:06:32.968Z,18.50
2022-11-06T08:09:00.469Z,18.45
2022-11-06T08:11:29.204Z,17.05
2022-11-06T08:13:56.625Z,22.67
2022-11-06T08:16:24.160Z,20.42
2022-11-06T08:18:51.617Z,18.05
2022-11-06T08:21:19.125Z,20.42
2022-11-06T08:23:46.718Z,14.55
2022-11-06T08:26:14.197Z,20.30
2022-11-06T08:28:43.232Z,14.90
2022-11-06T08:31:10.692Z,23.10
2022-11-06T08:33:39.344Z,26.10
2022-11-06T08:36:08.486Z,18.40
2022-11-06T08:38:36.798Z,16.20
2022-11-06T08:41:07.432Z,17.60
2022-11-06T08:43:34.948Z,15.40
2022-11-06T08:46:06.082Z,16.48
2022-11-06T08:48:33.792Z,14.52
2022-11-06T08:51:01.408Z,16.63
2022-11-06T08:53:28.875Z,16.65
2022-11-06T08:55:56.401Z,16.00
2022-11-06T08:58:23.838Z,13.38
2022-11-06T09:00:51.551Z,16.58
2022-11-06T09:03:20.369Z,22.38
2022-11-06T09:05:48.086Z,19.85
2022-11-06T09:08:16.033Z,17.25
2022-11-06T09:10:44.416Z,16.48
2022-11-06T09:13:12.816Z,14.75
2022-11-06T09:15:40.715Z,14.93
2022-11-06T09:18:08.233Z,15.45
2022-11-06T09:20:37.201Z,12.02
2022-11-06T09:23:06.398Z,16.92
2022-11-06T09:25:34.265Z,10.82
2022-11-06T09:28:01.842Z,9.60
2022-11-06T09:30:30.762Z,10.40
2022-11-06T09:32:59.624Z,13.85
2022-11-06T09:35:28.262Z,11.50
2022-11-06T09:38:01.892Z,11.73
2022-11-06T09:40:33.171Z,11.88
2022-11-06T09:43:13.276Z,12.55
2022-11-06T09:45:41.525Z,10.60
2022-11-06T09:48:15.353Z,14.07
2022-11-06T09:53:16.773Z,11.93
2022-11-06T09:55:45.426Z,10.98
2022-11-06T09:58:16.133Z,10.00
2022-11-06T10:00:44.035Z,12.95
2022-11-06T10:03:16.895Z,15.82
2022-11-06T10:05:46.653Z,8.55
2022-11-06T10:08:17.785Z,13.38
2022-11-06T10:10:53.783Z,9.30
2022-11-06T10:13:29.699Z,10.27
2022-11-06T10:16:01.149Z,10.50
2022-11-06T10:18:39.256Z,11.40
2022-11-06T10:21:11.988Z,11.75
2022-11-06T10:23:46.621Z,8.20
2022-11-06T10:26:16.002Z,10.00
2022-11-06T10:28:56.991Z,9.77
2022-11-06T10:31:31.840Z,9.43
2022-11-06T10:34:02.335Z,9.38
2022-11-06T10:36:32.627Z,10.35
2022-11-06T10:39:02.518Z,9.27
2022-11-06T10:41:33.768Z,9.43
2022-11-06T10:44:04.246Z,10.73
2022-11-06T10:46:37.244Z,6.97
2022-11-06T10:49:12.101Z,8.57
2022-11-06T10:51:58.713Z,8.02
2022-11-06T10:54:38.897Z,9.70
2022-11-06T10:57:16.467Z,8.30
2022-11-06T10:59:44.283Z,8.50
2022-11-06T11:02:22.798Z,9.88
2022-11-06T11:04:55.374Z,8.98
2022-11-06T11:07:25.249Z,9.23
2022-11-06T11:09:54.411Z,12.00
2022-11-06T11:12:24.421Z,8.80
2022-11-06T11:15:13.422Z,7.28
2022-11-06T11:17:41.437Z,6.88
2022-11-06T11:20:31.777Z,10.93
2022-11-06T11:23:15.763Z,6.38
2022-11-06T11:28:24.915Z,8.40
2022-11-06T11:30:53.960Z,10.15
2022-11-06T11:33:23.501Z,10.10
2022-11-06T11:35:51.532Z,8.48
2022-11-06T11:38:21.885Z,21.08
2022-11-06T11:40:51.629Z,8.25
2022-11-06T11:43:24.352Z,7.60
2022-11-06T11:46:06.061Z,7.20
2022-11-06T11:48:52.419Z,7.65
2022-11-06T11:51:29.519Z,7.30
2022-11-06T11:53:58.842Z,12.60
2022-11-06T11:56:50.026Z,10.88
2022-11-06T11:59:19.334Z,6.70
2022-11-06T12:01:47.649Z,7.88
2022-11-06T12:04:20.768Z,6.57
2022-11-06T12:06:54.225Z,7.40
2022-11-06T12:09:22.556Z,8.45
2022-11-06T12:11:54.495Z,6.32
2022-11-06T12:14:35.861Z,10.00
2022-11-06T12:17:11.145Z,6.00
2022-11-06T12:19:40.194Z,9.32
2022-11-06T12:22:12.225Z,5.95
2022-11-06T12:24:55.737Z,7.07
2022-11-06T12:27:28.690Z,6.90
2022-11-06T12:30:03.795Z,9.73
2022-11-06T12:32:55.214Z,10.63
2022-11-06T12:35:26.204Z,9.25
2022-11-06T12:37:59.411Z,10.55
2022-11-06T12:40:30.018Z,6.07
2022-11-06T12:43:06.859Z,11.57
2022-11-06T12:45:43.136Z,9.75
2022-11-06T12:48:20.102Z,10.50
2022-11-06T12:50:53.042Z,7.38
2022-11-06T12:53:29.771Z,8.32
2022-11-06T12:56:00.371Z,8.80
2022-11-06T12:58:42.916Z,9.93
2022-11-06T13:01:16.440Z,7.40
2022-11-06T13:04:03.812Z,9.15
2022-11-06T13:06:53.794Z,8.23
2022-11-06T13:09:25.500Z,9.98
2022-11-06T13:11:58.644Z,9.38
2022-11-06T13:14:31.621Z,7.18
2022-11-06T13:17:03.353Z,6.37
2022-11-06T13:19:35.071Z,12.85
2022-11-06T13:22:11.066Z,14.45
2022-11-06T13:24:42.653Z,6.97
2022-11-06T13:27:19.213Z,7.22
2022-11-06T13:29:47.986Z,13.07
2022-11-06T13:32:17.714Z,10.77
2022-11-06T13:34:48.845Z,8.60
2022-11-06T13:37:19.200Z,15.57
2022-11-06T13:39:49.881Z,8.27
2022-11-06T13:42:24.046Z,7.10
2022-11-06T13:44:53.234Z,9.25
2022-11-06T13:47:25.104Z,6.30
2022-11-06T13:49:57.791Z,8.07
2022-11-06T13:52:31.624Z,9.05
2022-11-06T13:57:39.703Z,7.65
2022-11-06T14:00:22.328Z,7.50
2022-11-06T14:03:22.552Z,6.95
2022-11-06T14:05:55.953Z,7.38
2022-11-06T14:08:28.160Z,6.78
2022-11-06T14:10:58.674Z,10.77
2022-11-06T14:13:28.494Z,13.88
2022-11-06T14:16:22.498Z,7.60
2022-11-06T14:18:58.526Z,7.95
2022-11-06T14:21:46.360Z,8.63
2022-11-06T14:24:28.662Z,5.35
2022-11-06T14:26:56.132Z,5.97
2022-11-06T14:30:00.410Z,5.05
2022-11-06T14:32:41.196Z,7.18
2022-11-06T14:35:51.893Z,7.55
2022-11-06T14:38:32.313Z,7.18
2022-11-06T14:40:59.889Z,7.80
2022-11-06T14:43:29.472Z,8.00
2022-11-06T14:45:59.826Z,9.98
2022-11-06T14:48:30.581Z,8.88
2022-11-06T14:50:58.944Z,6.35
2022-11-06T14:53:29.653Z,9.93
2022-11-06T14:55:59.957Z,8.48
2022-11-06T14:58:28.893Z,8.40
2022-11-06T15:00:57.993Z,7.97
2022-11-06T15:03:34.180Z,7.18
2022-11-06T15:06:06.125Z,6.97
2022-11-06T15:08:57.114Z,5.97
2022-11-06T15:11:50.747Z,10.25
2022-11-06T15:14:53.339Z,14.73
2022-11-06T15:17:22.311Z,14.63
2022-11-06T15:19:56.072Z,16.17
2022-11-06T15:22:29.130Z,13.45
2022-11-06T15:25:00.514Z,15.23
2022-11-06T15:27:30.538Z,10.23
2022-11-06T15:29:59.882Z,11.05
2022-11-06T15:32:30.193Z,10.23
2022-11-06T15:35:04.556Z,15.98
2022-11-06T15:37:33.601Z,12.43
2022-11-06T15:40:01.868Z,12.60
2022-11-06T15:42:30.892Z,11.52
2022-11-06T15:45:08.406Z,17.85
2022-11-06T15:47:36.217Z,19.20
2022-11-06T15:50:15.191Z,15.98
2022-11-06T15:52:43.061Z,18.83
2022-11-06T15:55:23.390Z,26.42
2022-11-06T15:57:51.344Z,21.15
2022-11-06T16:00:20.909Z,32.45
2022-11-06T16:02:49.757Z,35.05
2022-11-06T16:05:19.862Z,23.77
2022-11-06T16:07:47.938Z,18.08
2022-11-06T16:10:16.768Z,13.85
2022-11-06T16:12:44.625Z,14.70
2022-11-06T16:15:47.351Z,13.10
2022-11-06T16:18:17.486Z,15.38
2022-11-06T16:20:47.527Z,15.98
2022-11-06T16:23:16.535Z,16.23
2022-11-06T16:25:44.275Z,18.10
2022-11-06T16:28:17.245Z,13.45
2022-11-06T16:30:45.824Z,15.40
2022-11-06T16:33:20.287Z,21.15
2022-11-06T16:35:55.307Z,11.20
2022-11-06T16:38:40.936Z,14.63
2022-11-06T16:41:10.359Z,11.13
2022-11-06T16:43:37.786Z,15.38
2022-11-06T16:46:07.893Z,13.05
2022-11-06T16:48:40.452Z,19.10
2022-11-06T16:51:11.092Z,14.05
2022-11-06T16:53:56.553Z,14.70
2022-11-06T16:56:26.166Z,15.93
2022-11-06T16:58:57.817Z,19.98
2022-11-06T17:01:26.975Z,18.08
2022-11-06T17:03:57.116Z,14.40
2022-11-06T17:06:27.815Z,19.85
2022-11-06T17:09:09.448Z,20.10
2022-11-06T17:11:38.629Z,20.98
2022-11-06T17:14:16.884Z,19.20
2022-11-06T17:16:49.629Z,22.05
2022-11-06T17:19:17.281Z,27.65
2022-11-06T17:21:46.055Z,24.88
2022-11-06T17:27:00.985Z,23.13
2022-11-06T17:29:28.519Z,19.40
2022-11-06T17:31:56.681Z,21.52
2022-11-06T17:34:24.122Z,17.90
2022-11-06T17:36:53.128Z,18.17
2022-11-06T17:39:20.636Z,15.38
2022-11-06T17:41:48.063Z,15.43
2022-11-06T17:44:15.521Z,16.85
2022-11-06T17:46:44.053Z,15.10
2022-11-06T17:49:17.215Z,19.20
2022-11-06T17:51:53.384Z,16.38
2022-11-06T17:54:23.391Z,15.25
2022-11-06T17:56:51.383Z,19.55
2022-11-06T17:59:18.933Z,25.17
2022-11-06T18:01:47.443Z,24.52
2022-11-06T18:04:15.128Z,25.23
2022-11-06T18:06:45.292Z,17.13
2022-11-06T18:09:13.646Z,17.85
2022-11-06T18:11:42.602Z,16.33
2022-11-06T18:14:10.469Z,13.63
2022-11-06T18:16:43.725Z,16.25
2022-11-06T18:19:13.167Z,18.15
2022-11-06T18:21:40.785Z,14.50
2022-11-06T18:24:08.356Z,17.90
2022-11-06T18:26:37.151Z,17.88
2022-11-06T18:29:06.280Z,14.55
2022-11-06T18:31:33.789Z,21.10
2022-11-06T18:34:01.604Z,18.85
2022-11-06T18:36:29.032Z,19.90
2022-11-06T18:38:56.500Z,18.65
2022-11-06T18:41:24.571Z,16.25
2022-11-06T18:43:56.507Z,20.52
2022-11-06T18:46:26.676Z,19.55
2022-11-06T18:48:54.519Z,21.75
2022-11-06T18:51:34.368Z,17.73
2022-11-06T18:54:05.471Z,19.30
2022-11-06T18:56:33.586Z,21.48
2022-11-06T18:59:00.976Z,21.30
2022-11-06T19:01:29.866Z,20.15
2022-11-06T19:03:57.998Z,19.77
2022-11-06T19:06:25.616Z,22.50
2022-11-06T19:08:53.039Z,22.73
2022-11-06T19:11:20.977Z,25.25
2022-11-06T19:13:48.933Z,27.67
2022-11-06T19:16:19.177Z,26.63
2022-11-06T19:21:29.405Z,22.58
2022-11-06T19:24:03.418Z,24.27
2022-11-06T19:26:32.354Z,25.00
2022-11-06T19:29:00.781Z,28.52
2022-11-06T19:31:29.942Z,28.20
2022-11-06T19:33:59.970Z,26.73
2022-11-06T19:36:27.883Z,27.45
2022-11-06T19:38:57.229Z,26.90
2022-11-06T19:41:24.901Z,31.10
2022-11-06T19:43:52.388Z,32.85
2022-11-06T19:46:25.034Z,29.75
2022-11-06T19:48:55.036Z,28.40
2022-11-06T19:51:24.856Z,30.42
2022-11-06T19:53:53.009Z,31.73
2022-11-06T19:56:21.337Z,29.10
2022-11-06T19:58:50.184Z,30.13
2022-11-06T20:01:18.124Z,29.95
2022-11-06T20:03:45.622Z,28.23
2022-11-06T20:06:13.743Z,36.17
2022-11-06T20:08:42.489Z,29.20
2022-11-06T20:11:12.620Z,31.15
2022-11-06T20:13:40.523Z,32.35
2022-11-06T20:16:09.585Z,32.83
2022-11-06T20:18:37.886Z,32.63
2022-11-06T20:21:07.487Z,33.03
2022-11-06T20:23:36.271Z,32.78
2022-11-06T20:26:06.320Z,32.88
2022-11-06T20:28:33.993Z,31.60
2022-11-06T20:31:05.828Z,34.38
2022-11-06T20:33:33.373Z,31.40
2022-11-06T20:36:09.494Z,36.50
2022-11-06T20:38:36.892Z,33.92
2022-11-06T20:41:06.041Z,33.70
2022-11-06T20:43:33.520Z,37.20
2022-11-06T20:46:00.983Z,34.33
2022-11-06T20:48:28.502Z,34.13
2022-11-06T20:50:59.493Z,35.80
2022-11-06T20:53:27.682Z,38.50
2022-11-06T20:55:58.506Z,39.08
2022-11-06T20:58:27.828Z,37.17
2022-11-06T21:01:01.564Z,36.55
2022-11-06T21:03:28.993Z,39.72
2022-11-06T21:05:56.534Z,39.53
2022-11-06T21:08:24.184Z,38.05
2022-11-06T21:10:55.940Z,36.13
2022-11-06T21:13:23.628Z,42.03
2022-11-06T21:15:58.946Z,38.05
2022-11-06T21:18:26.971Z,42.78
2022-11-06T21:20:54.789Z,39.67
2022-11-06T21:23:22.876Z,40.60
2022-11-06T21:25:50.280Z,40.45
2022-11-06T21:28:17.694Z,39.53
2022-11-06T21:30:46.180Z,39.55
2022-11-06T21:33:15.913Z,42.83
2022-11-06T21:35:43.484Z,41.83
2022-11-06T21:38:10.917Z,38.83
2022-11-06T21:40:39.874Z,40.38
2022-11-06T21:43:07.816Z,38.58
2022-11-06T21:45:35.409Z,38.30
2022-11-06T21:48:07.979Z,41.05
2022-11-06T21:50:43.292Z,40.10
2022-11-06T21:53:28.891Z,40.85
2022-11-06T21:55:59.493Z,38.10
2022-11-06T21:58:26.913Z,40.30
2022-11-06T22:00:54.504Z,36.28
2022-11-06T22:03:21.922Z,39.88
2022-11-06T22:05:50.665Z,44.63
2022-11-06T22:08:18.064Z,38.30
2022-11-06T22:10:45.487Z,40.30
2022-11-06T22:13:13.200Z,46.95
2022-11-06T22:15:40.784Z,41.80
2022-11-06T22:18:08.197Z,37.97
2022-11-06T22:20:35.602Z,42.00
2022-11-06T22:23:04.362Z,36.70
2022-11-06T22:25:31.758Z,36.85
2022-11-06T22:27:59.727Z,35.63
2022-11-06T22:30:27.300Z,43.50
2022-11-06T22:32:54.698Z,39.95
2022-11-06T22:35:22.100Z,43.05
2022-11-06T22:37:49.491Z,38.15
2022-11-06T22:40:18.380Z,40.20
2022-11-06T22:42:49.531Z,41.03
2022-11-06T22:45:18.970Z,39.05
2022-11-06T22:47:46.799Z,36.55
2022-11-06T22:50:14.254Z,38.20
2022-11-06T22:52:41.676Z,41.38
2022-11-06T22:55:09.599Z,37.67
2022-11-06T22:57:38.339Z,41.28
2022-11-06T23:00:08.527Z,36.97
2022-11-06T23:02:36.135Z,37.35
2022-11-06T23:05:03.617Z,37.85
2022-11-06T23:07:30.997Z,40.67
2022-11-06T23:09:58.442Z,37.75
2022-11-06T23:12:25.836Z,37.08
2022-11-06T23:14:54.599Z,37.90
2022-11-06T23:17:22.002Z,36.55
2022-11-06T23:19:49.428Z,40.33
2022-11-06T23:22:34.538Z,39.17
2022-11-06T23:25:02.026Z,41.15
2022-11-06T23:27:29.486Z,37.95
2022-11-06T23:30:00.594Z,36.25
2022-11-06T23:32:28.093Z,34.80
2022-11-06T23:34:55.486Z,39.45
2022-11-06T23:37:22.984Z,35.47
2022-11-06T23:39:50.418Z,38.45
2022-11-06T23:42:19.167Z,37.42
2022-11-06T23:45:04.121Z,39.38
2022-11-06T23:47:32.860Z,41.90
2022-11-06T23:50:00.701Z,36.42
2022-11-06T23:52:28.563Z,37.10
2022-11-06T23:54:56.041Z,36.80
2022-11-06T23:57:23.623Z,38.67
2022-11-06T23:59:51.060Z,37.75
